createdAt,value
2019-02-27T00:01:39.273Z,12.36
2019-02-27T00:04:08.856Z,12.33
2019-02-27T00:06:38.603Z,12.32
2019-02-27T00:09:11.437Z,12.27
2019-02-27T00:11:45.858Z,12.22
2019-02-27T00:14:12.302Z,12.21
2019-02-27T00:16:44.629Z,12.19
2019-02-27T00:19:13.797Z,12.15
2019-02-27T00:21:43.536Z,12.14
2019-02-27T00:24:13.533Z,12.13
2019-02-27T00:26:44.436Z,12.09
2019-02-27T00:29:13.655Z,12.09
2019-02-27T00:31:46.084Z,12.06
2019-02-27T00:34:14.496Z,12.02
2019-02-27T00:36:45.199Z,12.01
2019-02-27T00:39:14.926Z,12.00
2019-02-27T00:41:46.008Z,11.96
2019-02-27T00:44:15.656Z,11.93
2019-02-27T00:46:46.506Z,11.86
2019-02-27T00:49:16.289Z,11.87
2019-02-27T00:51:48.553Z,11.87
2019-02-27T00:54:22.295Z,11.82
2019-02-27T00:56:51.786Z,11.76
2019-02-27T00:59:21.078Z,11.74
2019-02-27T01:01:50.636Z,11.69
2019-02-27T01:04:20.056Z,11.69
2019-02-27T01:06:49.307Z,11.68
2019-02-27T01:09:19.008Z,11.59
2019-02-27T01:11:51.531Z,11.56
2019-02-27T01:14:19.570Z,11.54
2019-02-27T01:16:50.255Z,11.49
2019-02-27T01:19:19.993Z,11.45
2019-02-27T01:21:49.216Z,11.44
2019-02-27T01:24:18.752Z,11.45
2019-02-27T01:26:47.989Z,11.44
2019-02-27T01:29:18.166Z,11.40
2019-02-27T01:31:48.281Z,11.38
2019-02-27T01:34:17.544Z,11.32
2019-02-27T01:36:46.833Z,11.29
2019-02-27T01:39:16.406Z,11.27
2019-02-27T01:41:45.663Z,11.28
2019-02-27T01:44:14.892Z,11.23
2019-02-27T01:46:44.509Z,11.19
2019-02-27T01:49:16.061Z,11.20
2019-02-27T01:51:44.708Z,11.20
2019-02-27T01:54:15.018Z,11.17
2019-02-27T01:56:44.876Z,11.13
2019-02-27T01:59:16.703Z,11.10
2019-02-27T02:01:45.514Z,11.08
2019-02-27T02:04:14.738Z,11.07
2019-02-27T02:06:44.283Z,11.05
2019-02-27T02:09:31.374Z,11.02
2019-02-27T02:12:01.457Z,10.97
2019-02-27T02:15:04.649Z,10.93
2019-02-27T02:18:18.716Z,10.90
2019-02-27T02:21:25.289Z,10.85
2019-02-27T02:24:33.959Z,10.77
2019-02-27T02:28:02.862Z,10.72
2019-02-27T02:31:11.023Z,10.65
2019-02-27T02:34:05.075Z,10.56
2019-02-27T02:37:02.557Z,10.50
2019-02-27T02:40:03.430Z,10.47
2019-02-27T02:43:03.189Z,10.45
2019-02-27T02:46:08.065Z,10.42
2019-02-27T02:49:07.870Z,10.42
2019-02-27T02:52:28.718Z,10.40
2019-02-27T02:55:48.799Z,10.33
2019-02-27T02:58:39.015Z,10.30
2019-02-27T03:01:15.947Z,10.29
2019-02-27T03:04:01.045Z,10.30
2019-02-27T03:07:11.110Z,10.28
2019-02-27T03:10:21.386Z,10.28
2019-02-27T03:13:31.225Z,10.22
2019-02-27T03:16:26.091Z,10.21
2019-02-27T03:19:20.939Z,10.18
2019-02-27T03:22:20.247Z,10.10
2019-02-27T03:25:49.249Z,10.10
2019-02-27T03:29:01.404Z,10.08
2019-02-27T03:32:00.624Z,10.06
2019-02-27T03:34:56.296Z,10.03
2019-02-27T03:37:37.490Z,9.98
2019-02-27T03:40:34.479Z,9.97
2019-02-27T03:43:54.004Z,9.92
2019-02-27T03:46:41.799Z,9.90
2019-02-27T03:49:48.114Z,9.83
2019-02-27T03:52:50.238Z,9.83
2019-02-27T03:55:51.176Z,9.80
2019-02-27T03:59:16.523Z,9.78
2019-02-27T04:02:23.263Z,9.76
2019-02-27T04:05:46.045Z,9.70
2019-02-27T04:08:45.022Z,9.65
2019-02-27T04:11:14.466Z,9.59
2019-02-27T04:13:44.005Z,9.57
2019-02-27T04:16:16.329Z,9.51
2019-02-27T04:18:45.677Z,9.51
2019-02-27T04:21:15.362Z,9.52
2019-02-27T04:23:48.016Z,9.49
2019-02-27T04:26:15.593Z,9.46
2019-02-27T04:28:45.096Z,9.45
2019-02-27T04:31:14.348Z,9.45
2019-02-27T04:33:43.673Z,9.44
2019-02-27T04:36:13.492Z,9.38
2019-02-27T04:38:42.712Z,9.39
2019-02-27T04:41:12.007Z,9.37
2019-02-27T04:43:41.521Z,9.38
2019-02-27T04:46:10.759Z,9.33
2019-02-27T04:48:40.062Z,9.32
2019-02-27T04:51:09.605Z,9.30
2019-02-27T04:53:40.716Z,9.26
2019-02-27T04:56:09.924Z,9.24
2019-02-27T04:58:42.813Z,9.23
2019-02-27T05:01:10.372Z,9.19
2019-02-27T05:03:39.625Z,9.18
2019-02-27T05:06:09.161Z,9.15
2019-02-27T05:08:38.409Z,9.14
2019-02-27T05:11:07.688Z,9.10
2019-02-27T05:13:37.391Z,9.10
2019-02-27T05:16:06.612Z,9.06
2019-02-27T05:18:35.882Z,9.04
2019-02-27T05:21:05.690Z,9.03
2019-02-27T05:23:35.020Z,9.02
2019-02-27T05:26:07.034Z,8.99
2019-02-27T05:28:36.255Z,8.96
2019-02-27T05:31:05.505Z,8.96
2019-02-27T05:33:36.488Z,8.98
2019-02-27T05:36:08.841Z,8.99
2019-02-27T05:38:38.207Z,8.97
2019-02-27T05:41:07.473Z,8.94
2019-02-27T05:43:36.702Z,8.90
2019-02-27T05:46:06.226Z,8.90
2019-02-27T05:48:35.506Z,8.86
2019-02-27T05:51:04.963Z,8.83
2019-02-27T05:53:35.697Z,8.83
2019-02-27T05:56:07.726Z,8.79
2019-02-27T05:58:36.955Z,8.80
2019-02-27T06:01:06.529Z,8.72
2019-02-27T06:03:35.788Z,8.72
2019-02-27T06:06:06.886Z,8.73
2019-02-27T06:08:38.188Z,8.70
2019-02-27T06:11:07.491Z,8.68
2019-02-27T06:13:38.994Z,8.67
2019-02-27T06:16:09.318Z,8.63
2019-02-27T06:18:38.948Z,8.60
2019-02-27T06:21:08.226Z,8.62
2019-02-27T06:23:38.484Z,8.64
2019-02-27T06:26:08.034Z,8.63
2019-02-27T06:28:37.310Z,8.57
2019-02-27T06:31:07.029Z,8.59
2019-02-27T06:33:36.378Z,8.63
2019-02-27T06:36:08.551Z,8.59
2019-02-27T06:38:38.110Z,8.61
2019-02-27T06:41:07.970Z,8.55
2019-02-27T06:43:37.239Z,8.53
2019-02-27T06:46:06.788Z,8.57
2019-02-27T06:48:36.064Z,8.58
2019-02-27T06:51:05.338Z,8.57
2019-02-27T06:53:34.915Z,8.57
2019-02-27T06:56:05.047Z,8.56
2019-02-27T06:58:34.904Z,8.56
2019-02-27T07:01:09.213Z,8.58
2019-02-27T07:03:35.640Z,8.58
2019-02-27T07:06:06.924Z,8.61
2019-02-27T07:08:38.187Z,8.61
2019-02-27T07:11:15.039Z,8.65
2019-02-27T07:13:45.498Z,8.63
2019-02-27T07:16:14.730Z,8.65
2019-02-27T07:18:44.205Z,8.69
2019-02-27T07:21:15.862Z,8.71
2019-02-27T07:23:45.215Z,8.74
2019-02-27T07:26:15.906Z,8.76
2019-02-27T07:28:45.811Z,8.73
2019-02-27T07:31:17.582Z,8.81
2019-02-27T07:33:46.217Z,8.86
2019-02-27T07:36:15.789Z,8.91
2019-02-27T07:38:45.044Z,8.92
2019-02-27T07:41:17.543Z,8.91
2019-02-27T07:43:45.608Z,8.95
2019-02-27T07:46:22.216Z,9.04
2019-02-27T07:48:48.663Z,9.11
2019-02-27T07:51:20.839Z,9.21
2019-02-27T07:53:51.474Z,9.30
2019-02-27T07:56:20.249Z,9.43
2019-02-27T07:58:49.651Z,9.61
2019-02-27T08:01:20.985Z,10.25
2019-02-27T08:03:50.400Z,11.51
2019-02-27T08:06:19.697Z,12.62
2019-02-27T08:08:49.250Z,13.62
2019-02-27T08:11:18.680Z,14.26
2019-02-27T08:13:47.981Z,14.86
2019-02-27T08:16:17.653Z,15.23
2019-02-27T08:18:46.992Z,15.47
2019-02-27T08:21:16.492Z,15.53
2019-02-27T08:23:48.840Z,15.50
2019-02-27T08:26:18.523Z,15.55
2019-02-27T08:28:47.825Z,15.53
2019-02-27T08:31:18.332Z,15.55
2019-02-27T08:33:47.644Z,15.59
2019-02-27T08:36:16.973Z,15.55
2019-02-27T08:38:46.604Z,15.58
2019-02-27T08:41:15.975Z,15.54
2019-02-27T08:43:45.254Z,15.50
2019-02-27T08:46:14.828Z,15.40
2019-02-27T08:48:44.128Z,15.32
2019-02-27T08:51:15.216Z,15.15
2019-02-27T08:53:52.510Z,15.14
2019-02-27T08:56:22.784Z,15.13
2019-02-27T08:58:52.554Z,15.17
2019-02-27T09:01:22.425Z,15.14
2019-02-27T09:03:51.756Z,15.17
2019-02-27T09:06:27.367Z,15.28
2019-02-27T09:08:53.379Z,15.42
2019-02-27T09:11:23.765Z,15.25
2019-02-27T09:13:53.070Z,15.39
2019-02-27T09:16:23.020Z,15.37
2019-02-27T09:18:54.717Z,15.55
2019-02-27T09:22:10.129Z,15.70
2019-02-27T09:24:39.710Z,15.86
2019-02-27T09:27:08.975Z,15.99
2019-02-27T09:29:38.259Z,16.13
2019-02-27T09:32:09.313Z,16.27
2019-02-27T09:34:39.802Z,16.39
2019-02-27T09:37:09.160Z,16.56
2019-02-27T09:39:38.780Z,16.83
2019-02-27T09:42:08.680Z,16.89
2019-02-27T09:44:38.068Z,17.19
2019-02-27T09:47:07.628Z,17.36
2019-02-27T09:49:40.318Z,17.51
2019-02-27T09:52:07.921Z,17.70
2019-02-27T09:54:37.511Z,17.94
2019-02-27T09:57:06.778Z,18.19
2019-02-27T09:59:36.210Z,18.53
2019-02-27T10:02:09.015Z,18.86
2019-02-27T10:04:39.563Z,19.10
2019-02-27T10:07:10.037Z,19.35
2019-02-27T10:09:41.145Z,19.51
2019-02-27T10:12:10.590Z,19.90
2019-02-27T10:14:40.426Z,20.01
2019-02-27T10:17:10.104Z,20.32
2019-02-27T10:19:40.406Z,20.23
2019-02-27T10:22:09.883Z,20.51
2019-02-27T10:24:40.339Z,20.93
2019-02-27T10:27:10.006Z,20.97
2019-02-27T10:29:39.489Z,21.02
2019-02-27T10:32:09.535Z,21.30
2019-02-27T10:34:39.857Z,21.58
2019-02-27T10:37:12.851Z,21.90
2019-02-27T10:39:40.616Z,22.25
2019-02-27T10:42:10.018Z,22.54
2019-02-27T10:44:40.075Z,22.55
2019-02-27T10:47:09.646Z,22.93
2019-02-27T10:49:39.302Z,23.24
2019-02-27T10:52:09.000Z,23.65
2019-02-27T10:54:39.979Z,23.97
2019-02-27T10:57:09.292Z,23.99
2019-02-27T10:59:39.002Z,24.26
2019-02-27T11:02:09.734Z,24.62
2019-02-27T11:04:40.054Z,24.96
2019-02-27T11:07:09.478Z,25.32
2019-02-27T11:09:41.228Z,25.37
2019-02-27T11:12:10.251Z,25.76
2019-02-27T11:14:39.694Z,26.09
2019-02-27T11:17:09.529Z,26.36
2019-02-27T11:19:39.421Z,26.64
2019-02-27T11:22:08.891Z,26.96
2019-02-27T11:24:39.177Z,27.37
2019-02-27T11:27:08.934Z,27.55
2019-02-27T11:29:38.369Z,27.95
2019-02-27T11:32:08.806Z,28.22
2019-02-27T11:34:38.953Z,28.47
2019-02-27T11:37:12.708Z,28.97
2019-02-27T11:39:42.551Z,29.47
2019-02-27T11:42:11.871Z,29.79
2019-02-27T11:44:41.713Z,30.27
2019-02-27T11:47:12.129Z,30.69
2019-02-27T11:49:42.106Z,30.98
2019-02-27T11:52:12.447Z,31.17
2019-02-27T11:54:44.381Z,31.38
2019-02-27T11:57:13.736Z,31.48
2019-02-27T11:59:46.477Z,31.69
2019-02-27T12:02:18.718Z,31.96
2019-02-27T12:04:53.504Z,32.33
2019-02-27T12:07:27.764Z,32.62
2019-02-27T12:09:58.890Z,32.80
2019-02-27T12:12:29.422Z,33.55
2019-02-27T12:14:59.352Z,33.21
2019-02-27T12:17:28.761Z,33.12
2019-02-27T12:20:00.396Z,33.36
2019-02-27T12:22:32.941Z,33.49
2019-02-27T12:25:03.422Z,33.59
2019-02-27T12:27:48.444Z,33.89
2019-02-27T12:30:09.456Z,34.04
2019-02-27T12:32:41.311Z,34.21
2019-02-27T12:35:13.555Z,34.41
2019-02-27T12:37:42.970Z,34.59
2019-02-27T12:40:15.091Z,34.81
2019-02-27T12:42:44.890Z,34.95
2019-02-27T12:45:16.495Z,34.96
2019-02-27T12:47:46.233Z,35.02
2019-02-27T12:50:17.475Z,35.09
2019-02-27T12:52:48.138Z,35.04
2019-02-27T12:55:20.352Z,34.87
2019-02-27T12:57:52.344Z,34.58
2019-02-27T13:00:22.894Z,34.47
2019-02-27T13:02:53.709Z,34.18
2019-02-27T13:05:26.279Z,34.05
2019-02-27T13:07:55.256Z,33.64
2019-02-27T13:10:25.192Z,33.64
2019-02-27T13:12:54.551Z,33.55
2019-02-27T13:15:24.207Z,33.40
2019-02-27T13:17:57.577Z,33.18
2019-02-27T13:20:27.056Z,33.20
2019-02-27T13:22:56.480Z,32.97
2019-02-27T13:25:26.647Z,32.87
2019-02-27T13:27:56.362Z,32.82
2019-02-27T13:30:26.144Z,32.88
2019-02-27T13:33:00.715Z,32.80
2019-02-27T13:35:28.555Z,32.61
2019-02-27T13:37:58.958Z,32.51
2019-02-27T13:40:28.868Z,32.54
2019-02-27T13:43:01.183Z,32.39
2019-02-27T13:45:34.048Z,32.13
2019-02-27T13:48:10.242Z,32.00
2019-02-27T13:50:45.212Z,31.81
2019-02-27T13:53:17.284Z,31.65
2019-02-27T13:55:52.805Z,31.73
2019-02-27T13:58:22.396Z,31.65
2019-02-27T14:00:53.700Z,31.68
2019-02-27T14:03:26.825Z,31.56
2019-02-27T14:05:56.157Z,31.18
2019-02-27T14:08:32.097Z,30.65
2019-02-27T14:11:02.566Z,30.07
2019-02-27T14:13:32.697Z,29.53
2019-02-27T14:16:05.040Z,29.32
2019-02-27T14:18:34.640Z,29.45
2019-02-27T14:21:03.917Z,29.68
2019-02-27T14:23:33.251Z,29.70
2019-02-27T14:26:06.744Z,29.81
2019-02-27T14:28:35.807Z,29.93
2019-02-27T14:31:09.018Z,29.90
2019-02-27T14:33:36.280Z,29.79
2019-02-27T14:36:09.241Z,29.63
2019-02-27T14:38:38.829Z,29.50
2019-02-27T14:41:08.376Z,29.45
2019-02-27T14:43:37.675Z,29.46
2019-02-27T14:46:11.549Z,29.34
2019-02-27T14:48:40.623Z,29.25
2019-02-27T14:51:11.192Z,29.25
2019-02-27T14:53:41.203Z,28.93
2019-02-27T14:56:10.797Z,28.63
2019-02-27T14:58:40.721Z,28.40
2019-02-27T15:01:11.806Z,28.07
2019-02-27T15:03:44.393Z,27.59
2019-02-27T15:06:19.373Z,27.22
2019-02-27T15:08:57.470Z,26.80
2019-02-27T15:11:20.512Z,26.44
2019-02-27T15:13:51.223Z,25.99
2019-02-27T15:16:21.899Z,25.76
2019-02-27T15:18:55.033Z,25.40
2019-02-27T15:21:25.456Z,25.15
2019-02-27T15:24:01.056Z,25.01
2019-02-27T15:26:26.727Z,24.84
2019-02-27T15:28:56.088Z,24.68
2019-02-27T15:31:25.691Z,24.48
2019-02-27T15:33:55.383Z,24.31
2019-02-27T15:36:29.297Z,24.10
2019-02-27T15:38:56.543Z,24.01
2019-02-27T15:41:27.027Z,24.07
2019-02-27T15:44:00.291Z,24.29
2019-02-27T15:46:27.989Z,24.60
2019-02-27T15:49:00.259Z,24.96
2019-02-27T15:51:32.313Z,25.27
2019-02-27T15:54:03.828Z,25.54
2019-02-27T15:56:33.257Z,25.79
2019-02-27T15:59:07.436Z,25.97
2019-02-27T16:01:35.626Z,26.13
2019-02-27T16:04:08.407Z,26.25
2019-02-27T16:06:39.833Z,26.36
2019-02-27T16:09:10.018Z,26.41
2019-02-27T16:11:39.458Z,26.44
2019-02-27T16:14:10.242Z,26.34
2019-02-27T16:16:42.258Z,26.32
2019-02-27T16:19:11.948Z,26.21
2019-02-27T16:21:43.480Z,26.18
2019-02-27T16:24:14.152Z,25.95
2019-02-27T16:26:43.952Z,25.52
2019-02-27T16:29:13.959Z,25.08
2019-02-27T16:31:43.701Z,24.62
2019-02-27T16:34:15.103Z,24.17
2019-02-27T16:36:46.935Z,23.82
2019-02-27T16:39:16.315Z,23.48
2019-02-27T16:41:56.311Z,23.14
2019-02-27T16:44:31.761Z,22.84
2019-02-27T16:47:03.601Z,22.54
2019-02-27T16:49:34.910Z,22.30
2019-02-27T16:52:08.925Z,22.06
2019-02-27T16:54:38.901Z,21.81
2019-02-27T16:57:10.420Z,21.57
2019-02-27T16:59:46.914Z,21.34
2019-02-27T17:02:17.324Z,21.15
2019-02-27T17:04:47.996Z,20.95
2019-02-27T17:07:18.255Z,20.86
2019-02-27T17:09:48.858Z,20.62
2019-02-27T17:12:19.347Z,20.51
2019-02-27T17:14:51.557Z,20.37
2019-02-27T17:17:25.143Z,20.24
2019-02-27T17:19:56.047Z,20.10
2019-02-27T17:22:32.646Z,20.01
2019-02-27T17:25:02.206Z,19.90
2019-02-27T17:27:35.139Z,19.82
2019-02-27T17:30:27.461Z,19.69
2019-02-27T17:33:04.118Z,19.58
2019-02-27T17:35:41.907Z,19.52
2019-02-27T17:38:13.741Z,19.38
2019-02-27T17:40:44.380Z,19.27
2019-02-27T17:43:28.504Z,19.21
2019-02-27T17:45:56.812Z,19.14
2019-02-27T17:48:33.565Z,18.99
2019-02-27T17:51:11.887Z,18.92
2019-02-27T17:53:50.205Z,18.83
2019-02-27T17:56:22.691Z,18.74
2019-02-27T17:58:55.197Z,18.64
2019-02-27T18:01:27.115Z,18.57
2019-02-27T18:04:00.076Z,18.49
2019-02-27T18:06:34.819Z,18.38
2019-02-27T18:09:11.173Z,18.34
2019-02-27T18:11:44.507Z,18.29
2019-02-27T18:14:16.165Z,18.19
2019-02-27T18:16:47.588Z,18.13
2019-02-27T18:19:18.210Z,18.02
2019-02-27T18:21:48.733Z,17.96
2019-02-27T18:24:20.136Z,17.94
2019-02-27T18:26:51.902Z,17.88
2019-02-27T18:29:22.827Z,17.79
2019-02-27T18:31:53.933Z,17.72
2019-02-27T18:34:25.878Z,17.62
2019-02-27T18:36:57.562Z,17.55
2019-02-27T18:39:27.689Z,17.53
2019-02-27T18:41:58.562Z,17.47
2019-02-27T18:44:28.766Z,17.38
2019-02-27T18:47:01.781Z,17.32
2019-02-27T18:49:31.863Z,17.26
2019-02-27T18:52:21.014Z,17.22
2019-02-27T18:54:49.907Z,17.18
2019-02-27T18:57:21.035Z,17.13
2019-02-27T18:59:53.287Z,17.05
2019-02-27T19:02:25.611Z,17.02
2019-02-27T19:04:59.266Z,16.93
2019-02-27T19:07:29.827Z,16.92
2019-02-27T19:10:03.718Z,16.91
2019-02-27T19:12:37.916Z,16.89
2019-02-27T19:15:11.358Z,16.84
2019-02-27T19:17:41.796Z,16.77
2019-02-27T19:20:23.968Z,16.74
2019-02-27T19:22:54.159Z,16.72
2019-02-27T19:25:34.168Z,16.69
2019-02-27T19:28:03.956Z,16.60
2019-02-27T19:30:34.757Z,16.56
2019-02-27T19:33:05.326Z,16.48
2019-02-27T19:35:36.018Z,16.42
2019-02-27T19:38:13.066Z,16.41
2019-02-27T19:40:43.052Z,16.40
2019-02-27T19:43:15.185Z,16.31
2019-02-27T19:45:45.916Z,16.27
2019-02-27T19:48:20.102Z,16.24
2019-02-27T19:50:52.687Z,16.25
2019-02-27T19:53:29.195Z,16.20
2019-02-27T19:56:07.757Z,16.18
2019-02-27T19:58:44.729Z,16.09
2019-02-27T20:01:15.110Z,16.07
2019-02-27T20:03:45.893Z,16.05
2019-02-27T20:06:35.971Z,15.99
2019-02-27T20:09:08.409Z,15.93
2019-02-27T20:11:40.286Z,15.85
2019-02-27T20:14:12.177Z,15.80
2019-02-27T20:16:42.069Z,15.75
2019-02-27T20:19:12.363Z,15.71
2019-02-27T20:21:44.450Z,15.65
2019-02-27T20:24:15.656Z,15.64
2019-02-27T20:26:47.050Z,15.58
2019-02-27T20:29:17.952Z,15.51
2019-02-27T20:31:48.096Z,15.47
2019-02-27T20:34:21.203Z,15.43
2019-02-27T20:36:52.987Z,15.40
2019-02-27T20:39:24.332Z,15.37
2019-02-27T20:41:54.403Z,15.34
2019-02-27T20:44:24.385Z,15.30
2019-02-27T20:46:57.104Z,15.27
2019-02-27T20:49:27.666Z,15.24
2019-02-27T20:51:57.846Z,15.17
2019-02-27T20:54:32.751Z,15.16
2019-02-27T20:57:04.320Z,15.24
2019-02-27T20:59:34.151Z,15.17
2019-02-27T21:02:07.655Z,15.10
2019-02-27T21:04:39.143Z,15.14
2019-02-27T21:07:09.493Z,15.12
2019-02-27T21:09:42.229Z,14.94
2019-02-27T21:12:11.069Z,14.97
2019-02-27T21:14:41.410Z,14.94
2019-02-27T21:17:11.711Z,14.92
2019-02-27T21:19:41.536Z,14.90
2019-02-27T21:22:11.641Z,14.90
2019-02-27T21:24:42.122Z,14.87
2019-02-27T21:27:11.853Z,14.93
2019-02-27T21:29:43.312Z,14.94
2019-02-27T21:32:13.505Z,14.92
2019-02-27T21:34:43.269Z,14.91
2019-02-27T21:37:13.298Z,14.89
2019-02-27T21:39:42.956Z,14.81
2019-02-27T21:42:12.944Z,14.75
2019-02-27T21:44:43.048Z,14.72
2019-02-27T21:47:12.591Z,14.70
2019-02-27T21:49:42.556Z,14.67
2019-02-27T21:52:12.370Z,14.67
2019-02-27T21:54:41.923Z,14.63
2019-02-27T21:57:12.013Z,14.55
2019-02-27T21:59:42.143Z,14.49
2019-02-27T22:02:11.872Z,14.45
2019-02-27T22:04:44.131Z,14.43
2019-02-27T22:07:12.866Z,14.39
2019-02-27T22:09:45.586Z,14.27
2019-02-27T22:12:15.579Z,14.25
2019-02-27T22:14:45.085Z,14.26
2019-02-27T22:17:16.734Z,14.29
2019-02-27T22:19:46.674Z,14.28
2019-02-27T22:22:16.124Z,14.24
2019-02-27T22:24:45.476Z,14.18
2019-02-27T22:27:15.133Z,14.18
2019-02-27T22:29:44.495Z,14.20
2019-02-27T22:32:14.677Z,14.18
2019-02-27T22:34:46.018Z,14.18
2019-02-27T22:37:18.459Z,14.14
2019-02-27T22:39:46.525Z,14.08
2019-02-27T22:42:16.172Z,14.03
2019-02-27T22:44:45.739Z,14.01
2019-02-27T22:47:18.486Z,14.01
2019-02-27T22:49:48.303Z,13.94
2019-02-27T22:52:19.273Z,13.87
2019-02-27T22:54:50.229Z,13.85
2019-02-27T22:57:22.929Z,13.78
2019-02-27T22:59:51.278Z,13.68
2019-02-27T23:02:22.272Z,13.68
2019-02-27T23:04:51.622Z,13.58
2019-02-27T23:07:21.469Z,13.54
2019-02-27T23:09:51.418Z,13.53
2019-02-27T23:12:21.303Z,13.46
2019-02-27T23:14:52.943Z,13.38
2019-02-27T23:17:23.598Z,13.36
2019-02-27T23:19:53.047Z,13.29
2019-02-27T23:22:23.146Z,13.21
2019-02-27T23:24:52.519Z,13.21
2019-02-27T23:27:21.868Z,13.15
2019-02-27T23:29:51.514Z,13.14
2019-02-27T23:32:21.427Z,13.01
2019-02-27T23:34:51.960Z,13.02
2019-02-27T23:37:22.887Z,12.92
2019-02-27T23:39:54.284Z,12.84
2019-02-27T23:42:23.598Z,12.80
2019-02-27T23:44:53.578Z,12.80
2019-02-27T23:47:24.208Z,12.72
2019-02-27T23:49:55.098Z,12.65
2019-02-27T23:52:26.108Z,12.69
2019-02-27T23:54:55.816Z,12.57
2019-02-27T23:57:26.660Z,12.57
2019-02-27T23:59:59.093Z,12.58
